sensor_id;sensor_type;location;lat;lon;timestamp;temperature;humidity
17795;DHT22;9021;50.882;4.326;2023-12-28T00:00:05;11.10;99.90
17795;DHT22;9021;50.882;4.326;2023-12-28T00:02:32;11.10;99.90
17795;DHT22;9021;50.882;4.326;2023-12-28T00:04:57;11.30;99.90
17795;DHT22;9021;50.882;4.326;2023-12-28T00:07:23;11.10;99.90
17795;DHT22;9021;50.882;4.326;2023-12-28T00:09:48;11.10;99.90
17795;DHT22;9021;50.882;4.326;2023-12-28T00:12:14;11.20;99.90
17795;DHT22;9021;50.882;4.326;2023-12-28T00:14:39;11.00;99.90
17795;DHT22;9021;50.882;4.326;2023-12-28T00:17:05;11.10;99.90
17795;DHT22;9021;50.882;4.326;2023-12-28T00:19:30;11.20;99.90
17795;DHT22;9021;50.882;4.326;2023-12-28T00:21:56;11.20;99.90
17795;DHT22;9021;50.882;4.326;2023-12-28T00:24:21;11.10;99.90
17795;DHT22;9021;50.882;4.326;2023-12-28T00:26:47;11.20;99.90
17795;DHT22;9021;50.882;4.326;2023-12-28T00:29:12;11.10;99.90
17795;DHT22;9021;50.882;4.326;2023-12-28T00:31:38;10.00;99.90
17795;DHT22;9021;50.882;4.326;2023-12-28T00:34:03;11.10;99.90
17795;DHT22;9021;50.882;4.326;2023-12-28T00:36:29;11.20;99.90
17795;DHT22;9021;50.882;4.326;2023-12-28T00:38:54;11.30;99.90
17795;DHT22;9021;50.882;4.326;2023-12-28T00:41:20;11.30;99.90
17795;DHT22;9021;50.882;4.326;2023-12-28T00:43:45;11.40;99.90
17795;DHT22;9021;50.882;4.326;2023-12-28T00:46:11;11.40;99.90
17795;DHT22;9021;50.882;4.326;2023-12-28T00:48:36;11.60;99.90
17795;DHT22;9021;50.882;4.326;2023-12-28T00:51:02;11.30;99.90
17795;DHT22;9021;50.882;4.326;2023-12-28T00:53:28;11.40;99.90
17795;DHT22;9021;50.882;4.326;2023-12-28T00:55:53;11.30;99.90
17795;DHT22;9021;50.882;4.326;2023-12-28T00:58:19;11.50;99.90
17795;DHT22;9021;50.882;4.326;2023-12-28T01:00:44;11.40;99.90
17795;DHT22;9021;50.882;4.326;2023-12-28T01:03:09;11.40;99.90
17795;DHT22;9021;50.882;4.326;2023-12-28T01:05:35;11.30;99.90
17795;DHT22;9021;50.882;4.326;2023-12-28T01:08:01;11.40;99.90
17795;DHT22;9021;50.882;4.326;2023-12-28T01:10:26;11.40;99.90
17795;DHT22;9021;50.882;4.326;2023-12-28T01:12:52;11.40;99.90
17795;DHT22;9021;50.882;4.326;2023-12-28T01:15:17;11.40;99.90
17795;DHT22;9021;50.882;4.326;2023-12-28T01:17:43;11.80;99.90
17795;DHT22;9021;50.882;4.326;2023-12-28T01:20:09;11.40;99.90
17795;DHT22;9021;50.882;4.326;2023-12-28T01:22:34;11.40;99.90
17795;DHT22;9021;50.882;4.326;2023-12-28T01:25:00;11.40;99.90
17795;DHT22;9021;50.882;4.326;2023-12-28T01:27:25;11.40;99.90
17795;DHT22;9021;50.882;4.326;2023-12-28T01:29:51;11.50;99.90
17795;DHT22;9021;50.882;4.326;2023-12-28T01:32:16;11.30;99.90
17795;DHT22;9021;50.882;4.326;2023-12-28T01:34:42;11.30;99.90
17795;DHT22;9021;50.882;4.326;2023-12-28T01:37:08;11.30;99.90
17795;DHT22;9021;50.882;4.326;2023-12-28T01:39:33;11.30;99.90
17795;DHT22;9021;50.882;4.326;2023-12-28T01:41:59;11.20;99.90
17795;DHT22;9021;50.882;4.326;2023-12-28T01:44:24;11.30;99.90
17795;DHT22;9021;50.882;4.326;2023-12-28T01:46:50;11.50;99.90
17795;DHT22;9021;50.882;4.326;2023-12-28T01:49:15;11.20;99.90
17795;DHT22;9021;50.882;4.326;2023-12-28T01:51:41;11.40;99.90
17795;DHT22;9021;50.882;4.326;2023-12-28T01:54:07;11.20;99.90
17795;DHT22;9021;50.882;4.326;2023-12-28T01:56:33;11.20;99.90
17795;DHT22;9021;50.882;4.326;2023-12-28T01:58:59;11.30;99.90
17795;DHT22;9021;50.882;4.326;2023-12-28T02:01:25;11.20;99.90
17795;DHT22;9021;50.882;4.326;2023-12-28T02:03:51;11.20;99.90
17795;DHT22;9021;50.882;4.326;2023-12-28T02:06:17;11.20;99.90
17795;DHT22;9021;50.882;4.326;2023-12-28T02:08:42;11.20;99.90
17795;DHT22;9021;50.882;4.326;2023-12-28T02:11:08;11.40;99.90
17795;DHT22;9021;50.882;4.326;2023-12-28T02:13:33;11.20;99.90
17795;DHT22;9021;50.882;4.326;2023-12-28T02:16:03;11.20;99.90
17795;DHT22;9021;50.882;4.326;2023-12-28T02:18:34;11.20;99.90
17795;DHT22;9021;50.882;4.326;2023-12-28T02:21:02;11.20;99.90
17795;DHT22;9021;50.882;4.326;2023-12-28T02:23:28;11.30;99.90
17795;DHT22;9021;50.882;4.326;2023-12-28T02:25:53;10.90;99.90
17795;DHT22;9021;50.882;4.326;2023-12-28T02:28:19;11.30;99.90
17795;DHT22;9021;50.882;4.326;2023-12-28T02:30:45;11.40;99.90
17795;DHT22;9021;50.882;4.326;2023-12-28T02:33:24;11.30;99.90
17795;DHT22;9021;50.882;4.326;2023-12-28T02:38:15;11.60;99.90
17795;DHT22;9021;50.882;4.326;2023-12-28T02:40:41;11.50;99.90
17795;DHT22;9021;50.882;4.326;2023-12-28T02:43:09;11.40;99.90
17795;DHT22;9021;50.882;4.326;2023-12-28T02:45:35;11.30;99.90
17795;DHT22;9021;50.882;4.326;2023-12-28T02:48:01;11.30;99.90
17795;DHT22;9021;50.882;4.326;2023-12-28T02:50:26;11.40;99.90
17795;DHT22;9021;50.882;4.326;2023-12-28T02:52:52;11.40;99.90
17795;DHT22;9021;50.882;4.326;2023-12-28T02:55:17;11.40;99.90
17795;DHT22;9021;50.882;4.326;2023-12-28T02:57:43;11.40;99.90
17795;DHT22;9021;50.882;4.326;2023-12-28T03:00:09;11.40;99.90
17795;DHT22;9021;50.882;4.326;2023-12-28T03:02:36;11.30;99.90
17795;DHT22;9021;50.882;4.326;2023-12-28T03:05:03;11.30;99.90
17795;DHT22;9021;50.882;4.326;2023-12-28T03:07:29;11.40;99.90
17795;DHT22;9021;50.882;4.326;2023-12-28T03:09:54;11.40;99.90
17795;DHT22;9021;50.882;4.326;2023-12-28T03:12:20;11.30;99.90
17795;DHT22;9021;50.882;4.326;2023-12-28T03:14:45;11.40;99.90
17795;DHT22;9021;50.882;4.326;2023-12-28T03:17:11;11.30;99.90
17795;DHT22;9021;50.882;4.326;2023-12-28T03:19:37;11.30;99.90
17795;DHT22;9021;50.882;4.326;2023-12-28T03:22:03;11.30;99.90
17795;DHT22;9021;50.882;4.326;2023-12-28T03:24:28;11.40;99.90
17795;DHT22;9021;50.882;4.326;2023-12-28T03:26:54;11.40;99.90
17795;DHT22;9021;50.882;4.326;2023-12-28T03:29:19;11.40;99.90
17795;DHT22;9021;50.882;4.326;2023-12-28T03:31:45;11.40;99.90
17795;DHT22;9021;50.882;4.326;2023-12-28T03:34:10;11.40;99.90
17795;DHT22;9021;50.882;4.326;2023-12-28T03:36:36;11.30;99.90
17795;DHT22;9021;50.882;4.326;2023-12-28T03:39:01;11.30;99.90
17795;DHT22;9021;50.882;4.326;2023-12-28T03:41:28;11.40;99.90
17795;DHT22;9021;50.882;4.326;2023-12-28T03:43:55;11.40;99.90
17795;DHT22;9021;50.882;4.326;2023-12-28T03:46:20;11.50;99.90
17795;DHT22;9021;50.882;4.326;2023-12-28T03:48:46;11.50;99.90
17795;DHT22;9021;50.882;4.326;2023-12-28T03:51:14;11.40;99.90
17795;DHT22;9021;50.882;4.326;2023-12-28T03:53:42;11.40;99.90
17795;DHT22;9021;50.882;4.326;2023-12-28T03:56:17;11.50;99.90
17795;DHT22;9021;50.882;4.326;2023-12-28T03:58:42;11.40;99.90
17795;DHT22;9021;50.882;4.326;2023-12-28T04:01:08;11.40;99.90
17795;DHT22;9021;50.882;4.326;2023-12-28T04:03:34;11.40;99.90
17795;DHT22;9021;50.882;4.326;2023-12-28T04:06:00;11.40;99.90
17795;DHT22;9021;50.882;4.326;2023-12-28T04:08:25;11.40;99.90
17795;DHT22;9021;50.882;4.326;2023-12-28T04:10:51;11.70;99.90
17795;DHT22;9021;50.882;4.326;2023-12-28T04:13:16;11.50;99.90
17795;DHT22;9021;50.882;4.326;2023-12-28T04:15:42;11.40;99.90
17795;DHT22;9021;50.882;4.326;2023-12-28T04:18:08;11.50;99.90
17795;DHT22;9021;50.882;4.326;2023-12-28T04:20:34;11.50;99.90
17795;DHT22;9021;50.882;4.326;2023-12-28T04:22:59;11.40;99.90
17795;DHT22;9021;50.882;4.326;2023-12-28T04:25:25;10.70;99.90
17795;DHT22;9021;50.882;4.326;2023-12-28T04:27:50;11.50;99.90
17795;DHT22;9021;50.882;4.326;2023-12-28T04:30:16;11.50;99.90
17795;DHT22;9021;50.882;4.326;2023-12-28T04:32:41;11.40;99.90
17795;DHT22;9021;50.882;4.326;2023-12-28T04:35:07;11.40;99.90
17795;DHT22;9021;50.882;4.326;2023-12-28T04:37:32;11.40;99.90
17795;DHT22;9021;50.882;4.326;2023-12-28T04:39:59;11.40;99.90
17795;DHT22;9021;50.882;4.326;2023-12-28T04:42:25;11.40;99.90
17795;DHT22;9021;50.882;4.326;2023-12-28T04:44:50;11.30;99.90
17795;DHT22;9021;50.882;4.326;2023-12-28T04:47:16;11.20;99.90
17795;DHT22;9021;50.882;4.326;2023-12-28T04:49:41;11.40;99.90
17795;DHT22;9021;50.882;4.326;2023-12-28T04:52:07;11.30;99.90
17795;DHT22;9021;50.882;4.326;2023-12-28T04:54:32;11.40;99.90
17795;DHT22;9021;50.882;4.326;2023-12-28T04:56:58;11.40;99.90
17795;DHT22;9021;50.882;4.326;2023-12-28T04:59:25;11.30;99.90
17795;DHT22;9021;50.882;4.326;2023-12-28T05:01:50;11.30;99.90
17795;DHT22;9021;50.882;4.326;2023-12-28T05:04:16;11.20;99.90
17795;DHT22;9021;50.882;4.326;2023-12-28T05:06:41;11.30;99.90
17795;DHT22;9021;50.882;4.326;2023-12-28T05:09:07;11.20;99.90
17795;DHT22;9021;50.882;4.326;2023-12-28T05:11:32;11.20;99.90
17795;DHT22;9021;50.882;4.326;2023-12-28T05:13:58;11.20;99.90
17795;DHT22;9021;50.882;4.326;2023-12-28T05:16:23;11.20;99.90
17795;DHT22;9021;50.882;4.326;2023-12-28T05:18:49;11.20;99.90
17795;DHT22;9021;50.882;4.326;2023-12-28T05:21:14;11.50;99.90
17795;DHT22;9021;50.882;4.326;2023-12-28T05:23:40;11.20;99.90
17795;DHT22;9021;50.882;4.326;2023-12-28T05:26:05;11.10;99.90
17795;DHT22;9021;50.882;4.326;2023-12-28T05:28:31;11.30;99.90
17795;DHT22;9021;50.882;4.326;2023-12-28T05:30:57;11.20;99.90
17795;DHT22;9021;50.882;4.326;2023-12-28T05:33:24;11.20;99.90
17795;DHT22;9021;50.882;4.326;2023-12-28T05:35:50;11.30;99.90
17795;DHT22;9021;50.882;4.326;2023-12-28T05:38:15;11.20;99.90
17795;DHT22;9021;50.882;4.326;2023-12-28T05:40:41;11.30;99.90
17795;DHT22;9021;50.882;4.326;2023-12-28T05:43:06;11.20;99.90
17795;DHT22;9021;50.882;4.326;2023-12-28T05:45:32;11.20;99.90
17795;DHT22;9021;50.882;4.326;2023-12-28T05:47:57;11.60;99.90
17795;DHT22;9021;50.882;4.326;2023-12-28T05:50:23;11.40;99.90
17795;DHT22;9021;50.882;4.326;2023-12-28T05:52:48;11.20;99.90
17795;DHT22;9021;50.882;4.326;2023-12-28T05:55:14;11.20;99.90
17795;DHT22;9021;50.882;4.326;2023-12-28T05:57:39;11.20;99.90
17795;DHT22;9021;50.882;4.326;2023-12-28T06:00:06;11.20;99.90
17795;DHT22;9021;50.882;4.326;2023-12-28T06:02:32;11.20;99.90
17795;DHT22;9021;50.882;4.326;2023-12-28T06:04:58;11.20;99.90
17795;DHT22;9021;50.882;4.326;2023-12-28T06:07:23;11.10;99.90
17795;DHT22;9021;50.882;4.326;2023-12-28T06:09:49;11.40;99.90
17795;DHT22;9021;50.882;4.326;2023-12-28T06:12:14;11.20;99.90
17795;DHT22;9021;50.882;4.326;2023-12-28T06:14:40;11.20;99.90
17795;DHT22;9021;50.882;4.326;2023-12-28T06:17:05;11.20;99.90
17795;DHT22;9021;50.882;4.326;2023-12-28T06:19:31;11.20;99.90
17795;DHT22;9021;50.882;4.326;2023-12-28T06:21:57;11.20;99.90
17795;DHT22;9021;50.882;4.326;2023-12-28T06:24:23;9.40;99.90
17795;DHT22;9021;50.882;4.326;2023-12-28T06:26:49;11.10;99.90
17795;DHT22;9021;50.882;4.326;2023-12-28T06:29:14;11.00;99.90
17795;DHT22;9021;50.882;4.326;2023-12-28T06:31:40;11.00;99.90
17795;DHT22;9021;50.882;4.326;2023-12-28T06:34:06;11.10;99.90
17795;DHT22;9021;50.882;4.326;2023-12-28T06:36:32;11.10;99.90
17795;DHT22;9021;50.882;4.326;2023-12-28T06:38:58;11.00;99.90
17795;DHT22;9021;50.882;4.326;2023-12-28T06:41:24;11.00;99.90
17795;DHT22;9021;50.882;4.326;2023-12-28T06:43:49;11.00;99.90
17795;DHT22;9021;50.882;4.326;2023-12-28T06:46:15;11.00;99.90
17795;DHT22;9021;50.882;4.326;2023-12-28T06:48:40;11.00;99.90
17795;DHT22;9021;50.882;4.326;2023-12-28T06:51:06;11.00;99.90
17795;DHT22;9021;50.882;4.326;2023-12-28T06:53:32;10.90;99.90
17795;DHT22;9021;50.882;4.326;2023-12-28T06:55:57;10.90;99.90
17795;DHT22;9021;50.882;4.326;2023-12-28T06:58:23;10.90;99.90
17795;DHT22;9021;50.882;4.326;2023-12-28T07:00:48;10.80;99.90
17795;DHT22;9021;50.882;4.326;2023-12-28T07:03:14;10.80;99.90
17795;DHT22;9021;50.882;4.326;2023-12-28T07:05:39;10.90;99.90
17795;DHT22;9021;50.882;4.326;2023-12-28T07:08:05;10.80;99.90
17795;DHT22;9021;50.882;4.326;2023-12-28T07:10:31;11.80;99.90
17795;DHT22;9021;50.882;4.326;2023-12-28T07:12:56;10.80;99.90
17795;DHT22;9021;50.882;4.326;2023-12-28T07:15:22;10.80;99.90
17795;DHT22;9021;50.882;4.326;2023-12-28T07:17:48;10.80;99.90
17795;DHT22;9021;50.882;4.326;2023-12-28T07:20:13;10.80;99.90
17795;DHT22;9021;50.882;4.326;2023-12-28T07:22:39;10.80;99.90
17795;DHT22;9021;50.882;4.326;2023-12-28T07:25:05;10.90;99.90
17795;DHT22;9021;50.882;4.326;2023-12-28T07:27:34;10.80;99.90
17795;DHT22;9021;50.882;4.326;2023-12-28T07:29:59;10.80;99.90
17795;DHT22;9021;50.882;4.326;2023-12-28T07:32:25;10.70;99.90
17795;DHT22;9021;50.882;4.326;2023-12-28T07:34:53;10.70;99.90
17795;DHT22;9021;50.882;4.326;2023-12-28T07:37:19;10.80;99.90
17795;DHT22;9021;50.882;4.326;2023-12-28T07:39:44;10.70;99.90
17795;DHT22;9021;50.882;4.326;2023-12-28T07:42:10;10.80;99.90
17795;DHT22;9021;50.882;4.326;2023-12-28T07:44:36;10.80;99.90
17795;DHT22;9021;50.882;4.326;2023-12-28T07:47:01;10.80;99.90
17795;DHT22;9021;50.882;4.326;2023-12-28T07:49:27;10.80;99.90
17795;DHT22;9021;50.882;4.326;2023-12-28T07:51:52;10.90;99.90
17795;DHT22;9021;50.882;4.326;2023-12-28T07:54:18;10.90;99.90
17795;DHT22;9021;50.882;4.326;2023-12-28T07:56:43;10.80;99.90
17795;DHT22;9021;50.882;4.326;2023-12-28T07:59:09;10.90;99.90
17795;DHT22;9021;50.882;4.326;2023-12-28T08:01:35;10.80;99.90
17795;DHT22;9021;50.882;4.326;2023-12-28T08:04:00;10.90;99.90
17795;DHT22;9021;50.882;4.326;2023-12-28T08:06:27;10.80;99.90
17795;DHT22;9021;50.882;4.326;2023-12-28T08:08:54;10.80;99.90
17795;DHT22;9021;50.882;4.326;2023-12-28T08:11:20;9.00;99.90
17795;DHT22;9021;50.882;4.326;2023-12-28T08:13:45;10.80;99.90
17795;DHT22;9021;50.882;4.326;2023-12-28T08:16:12;10.90;99.90
17795;DHT22;9021;50.882;4.326;2023-12-28T08:18:37;10.80;99.90
17795;DHT22;9021;50.882;4.326;2023-12-28T08:21:03;10.90;99.90
17795;DHT22;9021;50.882;4.326;2023-12-28T08:23:28;11.00;99.90
17795;DHT22;9021;50.882;4.326;2023-12-28T08:25:54;11.10;99.90
17795;DHT22;9021;50.882;4.326;2023-12-28T08:28:19;11.00;99.90
17795;DHT22;9021;50.882;4.326;2023-12-28T08:30:45;11.00;99.90
17795;DHT22;9021;50.882;4.326;2023-12-28T08:33:11;11.10;99.90
17795;DHT22;9021;50.882;4.326;2023-12-28T08:35:37;11.10;99.90
17795;DHT22;9021;50.882;4.326;2023-12-28T08:38:02;11.10;99.90
17795;DHT22;9021;50.882;4.326;2023-12-28T08:40:28;11.20;99.90
17795;DHT22;9021;50.882;4.326;2023-12-28T08:42:53;11.20;99.90
17795;DHT22;9021;50.882;4.326;2023-12-28T08:45:19;11.00;99.90
17795;DHT22;9021;50.882;4.326;2023-12-28T08:47:44;11.30;99.90
17795;DHT22;9021;50.882;4.326;2023-12-28T08:50:10;11.20;99.90
17795;DHT22;9021;50.882;4.326;2023-12-28T08:52:35;11.40;99.90
17795;DHT22;9021;50.882;4.326;2023-12-28T08:55:01;11.40;99.90
17795;DHT22;9021;50.882;4.326;2023-12-28T08:57:27;11.50;99.90
17795;DHT22;9021;50.882;4.326;2023-12-28T08:59:53;11.60;99.90
17795;DHT22;9021;50.882;4.326;2023-12-28T09:02:18;11.50;99.90
17795;DHT22;9021;50.882;4.326;2023-12-28T09:04:44;11.50;99.90
17795;DHT22;9021;50.882;4.326;2023-12-28T09:07:09;11.70;99.90
17795;DHT22;9021;50.882;4.326;2023-12-28T09:09:36;11.60;99.90
17795;DHT22;9021;50.882;4.326;2023-12-28T09:12:01;11.60;99.90
17795;DHT22;9021;50.882;4.326;2023-12-28T09:14:27;11.60;99.90
17795;DHT22;9021;50.882;4.326;2023-12-28T09:16:53;11.50;99.90
17795;DHT22;9021;50.882;4.326;2023-12-28T09:19:18;11.40;99.90
17795;DHT22;9021;50.882;4.326;2023-12-28T09:21:44;11.50;99.90
17795;DHT22;9021;50.882;4.326;2023-12-28T09:24:09;11.50;99.90
17795;DHT22;9021;50.882;4.326;2023-12-28T09:26:34;11.40;99.90
17795;DHT22;9021;50.882;4.326;2023-12-28T09:29:00;11.60;99.90
17795;DHT22;9021;50.882;4.326;2023-12-28T09:31:26;11.60;99.90
17795;DHT22;9021;50.882;4.326;2023-12-28T09:33:51;9.80;99.90
17795;DHT22;9021;50.882;4.326;2023-12-28T09:36:17;11.50;99.90
17795;DHT22;9021;50.882;4.326;2023-12-28T09:38:44;11.70;99.90
17795;DHT22;9021;50.882;4.326;2023-12-28T09:41:11;11.80;99.90
17795;DHT22;9021;50.882;4.326;2023-12-28T09:43:41;11.70;99.90
17795;DHT22;9021;50.882;4.326;2023-12-28T09:46:09;11.80;99.90
17795;DHT22;9021;50.882;4.326;2023-12-28T09:48:36;11.80;99.90
17795;DHT22;9021;50.882;4.326;2023-12-28T09:51:02;11.90;99.90
17795;DHT22;9021;50.882;4.326;2023-12-28T09:53:28;11.90;99.90
17795;DHT22;9021;50.882;4.326;2023-12-28T09:55:54;11.90;99.90
17795;DHT22;9021;50.882;4.326;2023-12-28T09:58:20;11.90;99.90
17795;DHT22;9021;50.882;4.326;2023-12-28T10:00:47;11.90;99.90
17795;DHT22;9021;50.882;4.326;2023-12-28T10:03:13;12.00;99.90
17795;DHT22;9021;50.882;4.326;2023-12-28T10:05:42;12.10;99.90
17795;DHT22;9021;50.882;4.326;2023-12-28T10:08:08;12.30;99.90
17795;DHT22;9021;50.882;4.326;2023-12-28T10:10:34;12.40;99.90
17795;DHT22;9021;50.882;4.326;2023-12-28T10:13:00;12.40;99.90
17795;DHT22;9021;50.882;4.326;2023-12-28T10:15:25;12.40;99.90
17795;DHT22;9021;50.882;4.326;2023-12-28T10:17:51;12.40;99.90
17795;DHT22;9021;50.882;4.326;2023-12-28T10:20:17;12.40;99.90
17795;DHT22;9021;50.882;4.326;2023-12-28T10:22:43;12.40;99.90
17795;DHT22;9021;50.882;4.326;2023-12-28T10:25:08;12.30;99.90
17795;DHT22;9021;50.882;4.326;2023-12-28T10:27:38;12.40;99.90
17795;DHT22;9021;50.882;4.326;2023-12-28T10:30:04;10.10;99.90
17795;DHT22;9021;50.882;4.326;2023-12-28T10:32:30;12.20;99.90
17795;DHT22;9021;50.882;4.326;2023-12-28T10:34:56;12.30;99.90
17795;DHT22;9021;50.882;4.326;2023-12-28T10:37:25;12.20;99.90
17795;DHT22;9021;50.882;4.326;2023-12-28T10:39:59;12.30;99.90
17795;DHT22;9021;50.882;4.326;2023-12-28T10:42:31;12.40;99.90
17795;DHT22;9021;50.882;4.326;2023-12-28T10:45:06;12.60;99.90
17795;DHT22;9021;50.882;4.326;2023-12-28T10:47:42;12.60;99.90
17795;DHT22;9021;50.882;4.326;2023-12-28T10:50:08;12.60;99.90
17795;DHT22;9021;50.882;4.326;2023-12-28T10:52:39;12.60;99.90
17795;DHT22;9021;50.882;4.326;2023-12-28T10:57:45;12.60;99.90
17795;DHT22;9021;50.882;4.326;2023-12-28T11:00:47;12.70;99.90
17795;DHT22;9021;50.882;4.326;2023-12-28T11:03:05;12.80;99.90
17795;DHT22;9021;50.882;4.326;2023-12-28T11:05:31;12.70;99.90
17795;DHT22;9021;50.882;4.326;2023-12-28T11:07:58;12.80;99.90
17795;DHT22;9021;50.882;4.326;2023-12-28T11:10:25;12.90;99.90
17795;DHT22;9021;50.882;4.326;2023-12-28T11:12:52;12.90;99.90
17795;DHT22;9021;50.882;4.326;2023-12-28T11:15:18;12.90;99.90
17795;DHT22;9021;50.882;4.326;2023-12-28T11:17:44;13.00;99.90
17795;DHT22;9021;50.882;4.326;2023-12-28T11:20:09;13.10;99.90
17795;DHT22;9021;50.882;4.326;2023-12-28T11:22:35;12.90;99.90
17795;DHT22;9021;50.882;4.326;2023-12-28T11:25:01;12.80;99.90
17795;DHT22;9021;50.882;4.326;2023-12-28T11:27:34;12.80;99.90
17795;DHT22;9021;50.882;4.326;2023-12-28T11:30:00;13.10;99.90
17795;DHT22;9021;50.882;4.326;2023-12-28T11:32:25;12.80;99.90
17795;DHT22;9021;50.882;4.326;2023-12-28T11:34:57;12.70;99.90
17795;DHT22;9021;50.882;4.326;2023-12-28T11:37:23;12.60;99.90
17795;DHT22;9021;50.882;4.326;2023-12-28T11:39:52;12.60;99.90
17795;DHT22;9021;50.882;4.326;2023-12-28T11:42:20;12.70;99.90
17795;DHT22;9021;50.882;4.326;2023-12-28T11:44:45;12.70;99.90
17795;DHT22;9021;50.882;4.326;2023-12-28T11:47:15;12.90;99.90
17795;DHT22;9021;50.882;4.326;2023-12-28T11:49:41;13.20;99.90
17795;DHT22;9021;50.882;4.326;2023-12-28T11:52:07;13.20;99.90
17795;DHT22;9021;50.882;4.326;2023-12-28T11:54:33;13.10;99.90
17795;DHT22;9021;50.882;4.326;2023-12-28T11:56:58;16.60;99.90
17795;DHT22;9021;50.882;4.326;2023-12-28T11:59:24;13.00;99.90
17795;DHT22;9021;50.882;4.326;2023-12-28T12:01:50;13.10;99.90
17795;DHT22;9021;50.882;4.326;2023-12-28T12:04:17;13.10;99.90
17795;DHT22;9021;50.882;4.326;2023-12-28T12:06:42;13.20;99.90
17795;DHT22;9021;50.882;4.326;2023-12-28T12:09:08;13.30;99.90
17795;DHT22;9021;50.882;4.326;2023-12-28T12:11:36;13.30;99.90
17795;DHT22;9021;50.882;4.326;2023-12-28T12:14:03;13.30;99.90
17795;DHT22;9021;50.882;4.326;2023-12-28T12:16:30;12.70;99.90
17795;DHT22;9021;50.882;4.326;2023-12-28T12:18:56;13.10;99.90
17795;DHT22;9021;50.882;4.326;2023-12-28T12:21:23;13.00;99.90
17795;DHT22;9021;50.882;4.326;2023-12-28T12:23:48;13.00;99.90
17795;DHT22;9021;50.882;4.326;2023-12-28T12:26:17;12.90;99.90
17795;DHT22;9021;50.882;4.326;2023-12-28T12:28:43;13.00;99.90
17795;DHT22;9021;50.882;4.326;2023-12-28T12:31:08;12.90;99.90
17795;DHT22;9021;50.882;4.326;2023-12-28T12:33:34;13.00;99.90
17795;DHT22;9021;50.882;4.326;2023-12-28T12:35:59;12.90;99.90
17795;DHT22;9021;50.882;4.326;2023-12-28T12:38:25;13.10;99.90
17795;DHT22;9021;50.882;4.326;2023-12-28T12:40:51;13.10;99.90
17795;DHT22;9021;50.882;4.326;2023-12-28T12:43:17;13.00;99.90
17795;DHT22;9021;50.882;4.326;2023-12-28T12:45:44;12.90;99.90
17795;DHT22;9021;50.882;4.326;2023-12-28T12:48:11;12.90;99.90
17795;DHT22;9021;50.882;4.326;2023-12-28T12:50:36;12.90;99.90
17795;DHT22;9021;50.882;4.326;2023-12-28T12:53:04;12.80;99.90
17795;DHT22;9021;50.882;4.326;2023-12-28T12:55:30;12.70;99.90
17795;DHT22;9021;50.882;4.326;2023-12-28T12:57:55;12.70;99.90
17795;DHT22;9021;50.882;4.326;2023-12-28T13:00:21;12.70;99.90
17795;DHT22;9021;50.882;4.326;2023-12-28T13:02:49;12.60;99.90
17795;DHT22;9021;50.882;4.326;2023-12-28T13:05:15;12.60;99.90
17795;DHT22;9021;50.882;4.326;2023-12-28T13:07:40;12.50;99.90
17795;DHT22;9021;50.882;4.326;2023-12-28T13:10:06;12.50;99.90
17795;DHT22;9021;50.882;4.326;2023-12-28T13:12:31;12.40;99.90
17795;DHT22;9021;50.882;4.326;2023-12-28T13:14:57;12.50;99.90
17795;DHT22;9021;50.882;4.326;2023-12-28T13:17:22;12.40;99.90
17795;DHT22;9021;50.882;4.326;2023-12-28T13:19:49;12.40;99.90
17795;DHT22;9021;50.882;4.326;2023-12-28T13:22:14;8.80;99.90
17795;DHT22;9021;50.882;4.326;2023-12-28T13:24:40;12.50;99.90
17795;DHT22;9021;50.882;4.326;2023-12-28T13:27:05;12.40;99.90
17795;DHT22;9021;50.882;4.326;2023-12-28T13:29:34;12.50;99.90
17795;DHT22;9021;50.882;4.326;2023-12-28T13:32:03;12.40;99.90
17795;DHT22;9021;50.882;4.326;2023-12-28T13:34:29;12.50;99.90
17795;DHT22;9021;50.882;4.326;2023-12-28T13:36:55;12.50;99.90
17795;DHT22;9021;50.882;4.326;2023-12-28T13:39:20;12.40;99.90
17795;DHT22;9021;50.882;4.326;2023-12-28T13:41:46;12.50;99.90
17795;DHT22;9021;50.882;4.326;2023-12-28T13:44:12;12.50;99.90
17795;DHT22;9021;50.882;4.326;2023-12-28T13:46:52;12.40;99.90
17795;DHT22;9021;50.882;4.326;2023-12-28T13:49:19;12.50;99.90
17795;DHT22;9021;50.882;4.326;2023-12-28T13:51:44;12.50;99.90
17795;DHT22;9021;50.882;4.326;2023-12-28T13:54:11;12.50;99.90
17795;DHT22;9021;50.882;4.326;2023-12-28T13:56:37;12.30;99.90
17795;DHT22;9021;50.882;4.326;2023-12-28T13:59:03;12.30;99.90
17795;DHT22;9021;50.882;4.326;2023-12-28T14:01:28;12.30;99.90
17795;DHT22;9021;50.882;4.326;2023-12-28T14:03:54;12.40;99.90
17795;DHT22;9021;50.882;4.326;2023-12-28T14:06:19;12.50;99.90
17795;DHT22;9021;50.882;4.326;2023-12-28T14:08:45;12.50;99.90
17795;DHT22;9021;50.882;4.326;2023-12-28T14:11:11;12.10;99.90
17795;DHT22;9021;50.882;4.326;2023-12-28T14:13:36;12.50;99.90
17795;DHT22;9021;50.882;4.326;2023-12-28T14:16:03;12.50;99.90
17795;DHT22;9021;50.882;4.326;2023-12-28T14:18:28;12.50;99.90
17795;DHT22;9021;50.882;4.326;2023-12-28T14:20:54;12.40;99.90
17795;DHT22;9021;50.882;4.326;2023-12-28T14:23:19;12.40;99.90
17795;DHT22;9021;50.882;4.326;2023-12-28T14:25:45;12.40;99.90
17795;DHT22;9021;50.882;4.326;2023-12-28T14:28:17;12.40;99.90
17795;DHT22;9021;50.882;4.326;2023-12-28T14:30:42;12.40;99.90
17795;DHT22;9021;50.882;4.326;2023-12-28T14:33:08;12.40;99.90
17795;DHT22;9021;50.882;4.326;2023-12-28T14:35:34;12.40;99.90
17795;DHT22;9021;50.882;4.326;2023-12-28T14:37:59;12.50;99.90
17795;DHT22;9021;50.882;4.326;2023-12-28T14:40:25;12.30;99.90
17795;DHT22;9021;50.882;4.326;2023-12-28T14:42:50;12.40;99.90
17795;DHT22;9021;50.882;4.326;2023-12-28T14:45:16;12.30;99.90
17795;DHT22;9021;50.882;4.326;2023-12-28T14:47:42;12.40;99.90
17795;DHT22;9021;50.882;4.326;2023-12-28T14:50:08;12.30;99.90
17795;DHT22;9021;50.882;4.326;2023-12-28T14:52:33;12.20;99.90
17795;DHT22;9021;50.882;4.326;2023-12-28T14:54:59;12.30;99.90
17795;DHT22;9021;50.882;4.326;2023-12-28T14:57:24;12.30;99.90
17795;DHT22;9021;50.882;4.326;2023-12-28T14:59:50;12.30;99.90
17795;DHT22;9021;50.882;4.326;2023-12-28T15:02:15;12.60;99.90
17795;DHT22;9021;50.882;4.326;2023-12-28T15:04:41;12.20;99.90
17795;DHT22;9021;50.882;4.326;2023-12-28T15:07:06;12.10;99.90
17795;DHT22;9021;50.882;4.326;2023-12-28T15:09:32;12.10;99.90
17795;DHT22;9021;50.882;4.326;2023-12-28T15:11:58;12.10;99.90
17795;DHT22;9021;50.882;4.326;2023-12-28T15:14:24;12.10;99.90
17795;DHT22;9021;50.882;4.326;2023-12-28T15:16:50;12.10;99.90
17795;DHT22;9021;50.882;4.326;2023-12-28T15:19:16;12.00;99.90
17795;DHT22;9021;50.882;4.326;2023-12-28T15:21:42;12.00;99.90
17795;DHT22;9021;50.882;4.326;2023-12-28T15:24:07;11.90;99.90
17795;DHT22;9021;50.882;4.326;2023-12-28T15:26:33;11.90;99.90
17795;DHT22;9021;50.882;4.326;2023-12-28T15:28:59;12.00;99.90
17795;DHT22;9021;50.882;4.326;2023-12-28T15:31:24;11.80;99.90
17795;DHT22;9021;50.882;4.326;2023-12-28T15:33:50;11.90;99.90
17795;DHT22;9021;50.882;4.326;2023-12-28T15:36:15;11.90;99.90
17795;DHT22;9021;50.882;4.326;2023-12-28T15:38:41;11.80;99.90
17795;DHT22;9021;50.882;4.326;2023-12-28T15:41:06;11.90;99.90
17795;DHT22;9021;50.882;4.326;2023-12-28T15:43:32;11.80;99.90